Burke Lakefront Airport Cleveland US
ICAO: KBKL
IATA: BKL
Category: Medium
Scheduled Services: No

Elevation: 583 ft
TransAlt. 18000 ft.

Airport Communications:
CLEVELAND APP/DEP:125.35
ASOS:125.25
ATIS:125.25
CTAF:124.3
GND:121.9
LAKEFRONT TWR:124.3
UNICOM:122.95

KBKL Zoom In..

If Map Doesn't Load, Click Here

Runways:

(A) RW 06L length 6195 ft width 150 ft
---- / hdg 65

(B) RW 06R length 5199 ft width 100 ft
---- / hdg 65

(C) RW 24L length 5199 ft width 100 ft
---- / hdg 245

(D) RW 24R length 6195 ft width 150 ft
ILS 109.75 / hdg 245

Location; KBKL
Day. 26 / Time. 10.16 Zulu
* Altimeter: 29.84
* Temperature: 21° c. 69.8°f.
* Wind from: 180° Speed 06 kn.
Dewpoint: 19° c.
Visibility: 8 Statute Miles.
Clouds: Scattered 2000 ft.
Clouds: Scattered 4100 ft.
Clouds: Overcast 5500 ft.
Conditions: Light Rain.

KBKL 261016Z 18006KT 8SM -RA SCT020 SCT041 OVC055 21/19 A2984 RMK AO2 RAB0957 P0003 T02060189


Wind From 180°
Speed 06 kn.

 
 
jpsmedia.com for Web Design worldairports.se 2018   terms of use